עמוד ראשי
METAR-TAF:

METAR-TAF

שדות תעופה :

פורט סעיד, מצרים

קו רוחב: 31-16N, קו אורך: 032-18E, גובה: 6מטר

תצפית מזג אוויר נוכחית

הדו"ח נערך לפני 1 שעות ו 22דקות, בשעה 21:00 UTC
רוח 5קשר מכיוון צפון/צפון-מערב
טמפרטורת 27 צלסיוס
לחות 79%
לחץ 1007 hPa
ראות 10 קילומטר או יותר
ללא עננים שבסיסם נמוך מ 5000 רגל או קומולונימבוס

METAR: HEPS 252100Z 33005KT CAVOK 27/23 Q1007 NOSIG

זמן: 00:22 (22:22 UTC)

תחזית

הדו"ח נערך לפני 5 שעות ו 22דקות, בשעה 17:00 UTC
תחזית בתוקף מ 25 ב 18 UTC עד 26 ב 24 UTC
רוח 10קשר מכיוון צפון/צפון-מערב
ראות 10 קילומטר או יותר
ללא עננים שבסיסם נמוך מ 5000 רגל או קומולונימבוס

TAF: HEPS 251700Z 2518/2624 34010KT CAVOK

תצפיות ותחזיות מזג אוויר לגבי יותר מ- 4,000 שדות תעופה ברחבי העולם. דוחות METAR ו- TAF.

התחנות הזמינות מסומנות בנקודות צהובות ואדומות על גבי המפה.

העבר את העכבר לנקודה הצבעונית על מנת לראות את שם התחנה.

לאחר מכן, לחץ כדי לראות את תוכן ואת תחזיות מזג האוויר.

כדי לשנות את המפה: לחץ על הכפתורים הירוקים עם הפלוס השחור כדי להתקרב; על הכפתור הירוק עם המקף כדי להתרחק; או בחיצים הירוקים למפות סמוכות.


METAR-TAF: